N3EG-9 messages


fromtotime message
N3EG-9 T#705,122 06/15 18:48:04z Send another 058,029,018,079,00010001
N3EG-9 T#704,122 06/15 18:18:02z Send another 057,029,018,079,00010001
N3EG-9 $GPRMC,03 06/15 17:49:02z Send another 514.000,A,4609.1074,N,12258.8152,W,0.06,339.69,140624,,,A*75
N3EG-9 T#701,122 06/15 16:48:01z Send another 054,028,017,078,00010001
N3EG-9 T#687,122 06/15 09:48:01z Send another 053,027,017,078,00010001
N3EG-9 T#663,125 06/14 21:48:03z Send another 072,033,019,078,00010001
N3EG-9 T#660,125 06/14 20:18:01z Send another 069,032,018,078,00010001
N3EG-9 T#657,124 06/14 18:48:02z Send another 064,030,018,078,00010001
N3EG-9 T#656,124 06/14 18:17:59z Send another 063,031,019,078,00010001
N3EG-9 T#647,123 06/14 13:47:58z Send another 048,026,016,078,00010001
N3EG-9 T#645,123 06/14 12:47:58z Send another 048,026,017,078,00010001
N3EG-9 T#633,125 06/14 06:47:58z Send another 062,030,019,078,00010001
N3EG-9 T#632,126 06/14 06:17:58z Send another 064,030,018,077,00010001
N3EG-9 T#631,126 06/14 05:47:58z Send another 067,031,019,077,00010001
N3EG-9 $GPRMC,03 06/14 03:41:13z Send another 104.000,A,4609.1085,N,12258.8147,W,0.30,334.57,140624,,,A*7F
N3EG-9 $GPGGA,03 06/14 03:40:25z Send another 020.000,4609.1085,N,12258.8149,W,1,08,1.2,7.3,M,-19.0,M,,0000*6E
N3EG-9 $GPRMC,03 06/14 03:30:55z Send another 050.000,A,4609.1091,N,12258.8166,W,0.24,154.54,140624,,,A*7C
N3EG-9 $GPRMC,03 06/14 03:25:48z Send another 543.000,A,4609.3222,N,12258.9979,W,0.09,53.25,140624,,,A*4A
N3EG-9 $GPRMC,03 06/14 03:20:43z Send another 036.000,A,4607.0549,N,12257.2700,W,37.85,312.00,140624,,,A*4F
N3EG-9 T#626,142 06/14 03:17:58z Send another 086,036,021,077,00010001
N3EG-9 $GPRMC,03 06/14 03:15:36z Send another 529.000,A,4605.5202,N,12256.7041,W,41.70,310.12,140624,,,A*44
N3EG-9 $GPRMC,03 06/14 03:00:11z Send another 011.000,A,4555.1156,N,12249.8424,W,53.13,328.85,140624,,,A*4E
N3EG-9 $GPRMC,02 06/14 02:58:44z Send another 842.000,A,4554.0389,N,12248.8956,W,46.98,331.23,140624,,,A*4E
N3EG-9 $GPRMC,02 06/14 02:55:07z Send another 504.000,A,4551.6075,N,12249.2077,W,0.12,176.17,140624,,,A*75
N3EG-9 $GPRMC,01 06/14 01:58:58z Send another 455.000,A,4550.7583,N,12249.7908,W,0.16,244.78,140624,,,A*71
N3EG-9 T#622,129 06/14 01:17:57z Send another 090,038,021,076,00010001
N3EG-9 $GPRMC,00 06/14 00:59:16z Send another 909.000,A,4550.7579,N,12249.7899,W,0.46,36.70,140624,,,A*47
N3EG-9 $GPGGA,00 06/14 00:58:34z Send another 828.000,4550.7559,N,12249.7917,W,1,07,1.8,27.1,M,-19.2,M,,0000*5A
N3EG-9 $GPRMC,00 06/14 00:57:33z Send another 720.000,A,4550.7512,N,12249.7965,W,0.17,68.65,140624,,,A*46
N3EG-9 $GPRMC,00 06/14 00:42:08z Send another 159.000,A,4551.7185,N,12249.1441,W,33.27,201.33,140624,,,A*44
N3EG-9 $GPRMC,00 06/14 00:21:34z Send another 131.000,A,4605.4230,N,12256.5468,W,28.76,119.95,140624,,,A*49
N3EG-9 $GPRMC,00 06/14 00:16:31z Send another 624.000,A,4607.0050,N,12257.1002,W,29.95,103.09,140624,,,A*44
N3EG-9 T#619,124 06/13 23:47:59z Send another 078,035,020,077,00010001
N3EG-9 T#617,124 06/13 22:47:56z Send another 078,034,020,078,00010001
N3EG-9 T#615,124 06/13 21:47:57z Send another 077,034,020,078,00010001
N3EG-9 T#612,124 06/13 20:17:57z Send another 073,033,019,078,00010001
N3EG-9 T#610,124 06/13 19:17:58z Send another 069,032,018,079,00010001
N3EG-9 T#609,123 06/13 18:47:57z Send another 066,031,019,079,00010001
N3EG-9 T#601,122 06/13 14:47:57z Send another 050,027,017,078,00010001
N3EG-9 T#596,122 06/13 12:17:56z Send another 050,026,017,078,00010001
N3EG-9 T#593,122 06/13 10:47:56z Send another 052,027,017,078,00010001
N3EG-9 T#582,123 06/13 05:17:57z Send another 066,031,019,078,00010001
N3EG-9 T#580,124 06/13 04:17:56z Send another 071,032,019,077,00010001
N3EG-9 T#578,124 06/13 03:17:56z Send another 075,034,020,077,00010001
N3EG-9 T#577,124 06/13 02:47:56z Send another 077,034,020,077,00010001
N3EG-9 T#573,125 06/13 00:47:55z Send another 083,036,020,077,00010001
N3EG-9 T#572,125 06/13 00:17:55z Send another 084,036,020,077,00010001
N3EG-9 T#569,126 06/12 22:47:55z Send another 081,035,020,078,00010001
N3EG-9 T#567,126 06/12 21:47:55z Send another 078,035,020,082,00010001
N3EG-9 T#566,126 06/12 21:17:56z Send another 076,034,020,084,00010001
N3EG-9 T#565,126 06/12 20:47:54z Send another 074,033,019,086,00010001
N3EG-9 T#564,125 06/12 20:17:54z Send another 072,033,019,087,00010001
N3EG-9 T#563,125 06/12 19:47:56z Send another 069,032,019,086,00010001
N3EG-9 T#560,124 06/12 18:17:57z Send another 061,030,019,082,00010001
N3EG-9 T#559,124 06/12 17:47:55z Send another 059,029,018,080,00010001
N3EG-9 T#558,123 06/12 17:17:55z Send another 056,028,018,079,00010001
N3EG-9 T#552,122 06/12 14:17:54z Send another 047,026,017,078,00010001
N3EG-9 T#546,122 06/12 11:17:54z Send another 049,026,017,078,00010001
N3EG-9 $GPRMC,04 06/12 11:08:40z Send another 425.000,A,4609.1065,N,12258.8152,W,0.56,133.95,120624,,,A*7E
N3EG-9 T#544,122 06/12 10:17:54z Send another 051,027,017,078,00010001
N3EG-9 T#542,123 06/12 09:17:56z Send another 053,028,017,078,00010001
N3EG-9 T#524,125 06/12 00:17:52z Send another 079,035,020,078,00010001
N3EG-9 T#523,125 06/11 23:47:55z Send another 079,035,020,079,00010001
N3EG-9 T#519,125 06/11 21:47:53z Send another 074,033,019,089,00010001
N3EG-9 T#518,126 06/11 21:17:52z Send another 072,033,019,089,00010001
N3EG-9 T#517,125 06/11 20:47:53z Send another 070,032,019,088,00010001
N3EG-9 T#516,125 06/11 20:17:53z Send another 067,031,019,087,00010001
N3EG-9 T#515,125 06/11 19:47:53z Send another 065,030,019,084,00010001
N3EG-9 T#501,123 06/11 12:47:53z Send another 057,029,018,078,00010001
N3EG-9 $GPRMC,04 06/11 12:14:23z Send another 033.000,A,4609.1063,N,12258.8166,W,0.26,303.72,110624,,,A*71
N3EG-9 N3EG-9 mi 06/11 12:05:51z Send another i van tracker TLM=Vdc*10,Temp (F)
N3EG-9 T#498,124 06/11 11:17:54z Send another 058,029,018,078,00010001
N3EG-9 T#487,125 06/11 05:47:52z Send another 070,032,019,077,00010001
N3EG-9 $GPGGA,04 06/11 04:21:00z Send another 033.000,4609.1063,N,12258.8166,W,1,08,0.9,8.8,M,-19.0,M,,0000*66
N3EG-9 $GPRMC,04 06/11 04:18:24z Send another 819.000,A,4609.1030,N,12258.8147,W,0.58,3.26,110624,,,A*7C
N3EG-9 T#484,125 06/11 04:17:53z Send another 075,034,020,078,00010001
N3EG-9 $GPRMC,04 06/11 04:13:18z Send another 315.000,A,4609.1068,N,12258.8152,W,0.16,179.80,110624,,,A*78
N3EG-9 $GPGGA,04 06/11 04:10:50z Send another 049.000,4609.1083,N,12258.8164,W,1,09,0.8,10.9,M,-19.0,M,,0000*5C
N3EG-9 $GPRMC,04 06/11 04:08:11z Send another 808.000,A,4609.1081,N,12258.8157,W,0.05,161.58,110624,,,A*72
N3EG-9 $GPRMC,04 06/11 04:03:04z Send another 301.000,A,4609.1099,N,12258.8161,W,0.15,155.08,110624,,,A*7F
N3EG-9 T#481,126 06/11 02:47:52z Send another 080,035,020,077,00010001
N3EG-9 T#480,126 06/11 02:17:50z Send another 081,035,020,077,00010001
N3EG-9 $GPRMC,01 06/11 01:50:01z Send another 749.000,A,4609.1137,N,12258.8224,W,0.42,74.16,110624,,,A*4E
N3EG-9 $GPGGA,01 06/11 01:49:11z Send another 749.000,4609.1137,N,12258.8224,W,1,07,1.4,-5.3,M,-19.0,M,,0000*42
N3EG-9 T#479,125 06/11 01:47:51z Send another 082,035,020,078,00010001
N3EG-9 $GPRMC,01 06/11 01:44:56z Send another 449.000,A,4609.1127,N,12258.8246,W,0.14,148.45,110624,,,A*73
N3EG-9 $GPRMC,01 06/11 01:39:46z Send another 942.000,A,4609.1137,N,12258.8246,W,0.04,269.87,110624,,,A*7C
N3EG-9 $GPGGA,01 06/11 01:39:09z Send another 901.000,4609.1144,N,12258.8244,W,1,08,1.2,-1.4,M,-19.0,M,,0000*4F
N3EG-9 $GPRMC,01 06/11 01:34:38z Send another 435.000,A,4609.1126,N,12258.8243,W,0.33,67.17,110624,,,A*45
N3EG-9 $GPRMC,00 06/11 00:33:16z Send another 158.000,A,4609.1071,N,12258.8161,W,0.19,193.92,110624,,,A*75
N3EG-9 $GPRMC,00 06/11 00:28:07z Send another 804.000,A,4609.1078,N,12258.8150,W,0.21,114.72,110624,,,A*75
N3EG-9 $GPRMC,00 06/11 00:23:01z Send another 257.000,A,4609.1082,N,12258.8172,W,0.12,164.72,110624,,,A*7B
N3EG-9 $GPGGA,00 06/11 00:18:12z Send another 805.000,4609.1090,N,12258.8158,W,1,05,3.4,6.4,M,-19.0,M,,0000*6C
N3EG-9 $GPRMC,00 06/11 00:17:59z Send another 750.000,A,4609.1091,N,12258.8160,W,0.13,213.69,110624,,,A*73
N3EG-9 T#476,126 06/11 00:17:50z Send another 087,037,021,078,00010001
N3EG-9 T#475,127 06/10 23:47:50z Send another 087,037,021,080,00010001
N3EG-9 T#474,127 06/10 23:17:50z Send another 085,036,020,085,00010001
N3EG-9 T#472,127 06/10 22:17:51z Send another 080,035,020,090,00010001
N3EG-9 T#471,127 06/10 21:47:53z Send another 077,035,020,090,00010001
N3EG-9 T#466,126 06/10 19:17:54z Send another 063,031,019,080,00010001